sensor_id;sensor_type;location;lat;lon;timestamp;P1;durP1;ratioP1;P2;durP2;ratioP2
43154;SDS011;34212;51.018;13.586;2023-04-24T05:01:53;1.63;;;1.33;;
43154;SDS011;34212;51.018;13.586;2023-04-24T05:06:56;3.40;;;1.25;;
43154;SDS011;34212;51.018;13.586;2023-04-24T05:11:59;1.45;;;1.02;;
43154;SDS011;34212;51.018;13.586;2023-04-24T05:17:04;2.20;;;1.17;;
43154;SDS011;34212;51.018;13.586;2023-04-24T05:22:07;2.85;;;1.17;;
43154;SDS011;34212;51.018;13.586;2023-04-24T05:27:19;1.50;;;1.10;;
43154;SDS011;34212;51.018;13.586;2023-04-24T05:32:23;1.45;;;1.10;;
43154;SDS011;34212;51.018;13.586;2023-04-24T05:37:24;2.83;;;1.00;;
43154;SDS011;34212;51.018;13.586;2023-04-24T05:42:27;1.90;;;1.00;;
43154;SDS011;34212;51.018;13.586;2023-04-24T05:47:31;1.70;;;1.02;;
43154;SDS011;34212;51.018;13.586;2023-04-24T05:52:33;1.17;;;1.02;;
43154;SDS011;34212;51.018;13.586;2023-04-24T05:57:39;1.67;;;1.13;;
43154;SDS011;34212;51.018;13.586;2023-04-24T06:02:40;1.37;;;1.10;;
43154;SDS011;34212;51.018;13.586;2023-04-24T06:07:45;1.08;;;0.90;;
43154;SDS011;34212;51.018;13.586;2023-04-24T06:12:47;3.97;;;1.33;;
43154;SDS011;34212;51.018;13.586;2023-04-24T06:17:51;2.75;;;1.40;;
43154;SDS011;34212;51.018;13.586;2023-04-24T06:22:54;1.52;;;1.00;;
43154;SDS011;34212;51.018;13.586;2023-04-24T06:27:55;2.85;;;1.13;;
43154;SDS011;34212;51.018;13.586;2023-04-24T06:32:58;4.97;;;1.20;;
43154;SDS011;34212;51.018;13.586;2023-04-24T06:38:13;2.22;;;1.15;;
43154;SDS011;34212;51.018;13.586;2023-04-24T06:43:15;2.15;;;1.20;;
43154;SDS011;34212;51.018;13.586;2023-04-24T06:48:16;1.20;;;1.10;;
43154;SDS011;34212;51.018;13.586;2023-04-24T06:53:18;2.75;;;1.25;;
43154;SDS011;34212;51.018;13.586;2023-04-24T06:58:19;1.33;;;1.20;;
43154;SDS011;34212;51.018;13.586;2023-04-24T07:03:21;1.53;;;0.97;;
43154;SDS011;34212;51.018;13.586;2023-04-24T07:08:23;2.87;;;1.10;;
43154;SDS011;34212;51.018;13.586;2023-04-24T07:13:25;1.57;;;0.87;;
43154;SDS011;34212;51.018;13.586;2023-04-24T07:23:28;0.98;;;0.80;;
43154;SDS011;34212;51.018;13.586;2023-04-24T07:28:30;1.20;;;1.10;;
43154;SDS011;34212;51.018;13.586;2023-04-24T07:33:32;4.63;;;0.90;;
43154;SDS011;34212;51.018;13.586;2023-04-24T07:38:34;2.72;;;0.90;;
43154;SDS011;34212;51.018;13.586;2023-04-24T07:43:35;1.00;;;0.90;;
43154;SDS011;34212;51.018;13.586;2023-04-24T07:48:37;1.97;;;1.43;;
43154;SDS011;34212;51.018;13.586;2023-04-24T07:53:38;1.00;;;0.90;;
43154;SDS011;34212;51.018;13.586;2023-04-24T07:58:40;2.05;;;1.05;;
43154;SDS011;34212;51.018;13.586;2023-04-24T08:03:41;3.92;;;0.90;;
43154;SDS011;34212;51.018;13.586;2023-04-24T08:08:43;1.97;;;1.00;;
43154;SDS011;34212;51.018;13.586;2023-04-24T08:13:44;2.00;;;1.50;;
43154;SDS011;34212;51.018;13.586;2023-04-24T08:18:46;1.13;;;0.90;;
43154;SDS011;34212;51.018;13.586;2023-04-24T08:23:47;0.80;;;0.80;;
43154;SDS011;34212;51.018;13.586;2023-04-24T08:28:49;12.57;;;1.43;;
43154;SDS011;34212;51.018;13.586;2023-04-24T08:33:51;1.20;;;1.00;;
43154;SDS011;34212;51.018;13.586;2023-04-24T08:38:52;1.90;;;1.13;;
43154;SDS011;34212;51.018;13.586;2023-04-24T08:43:54;1.90;;;1.00;;
43154;SDS011;34212;51.018;13.586;2023-04-24T08:48:56;1.45;;;0.80;;
43154;SDS011;34212;51.018;13.586;2023-04-24T08:53:58;0.85;;;0.80;;
43154;SDS011;34212;51.018;13.586;2023-04-24T08:59:00;1.55;;;1.10;;
43154;SDS011;34212;51.018;13.586;2023-04-24T09:04:02;3.22;;;0.90;;
43154;SDS011;34212;51.018;13.586;2023-04-24T09:09:05;4.00;;;1.48;;
43154;SDS011;34212;51.018;13.586;2023-04-24T09:14:07;1.02;;;0.82;;
43154;SDS011;34212;51.018;13.586;2023-04-24T09:19:10;1.65;;;0.90;;
43154;SDS011;34212;51.018;13.586;2023-04-24T09:24:16;2.20;;;0.93;;
43154;SDS011;34212;51.018;13.586;2023-04-24T09:29:22;2.92;;;1.13;;
43154;SDS011;34212;51.018;13.586;2023-04-24T09:34:25;1.37;;;0.83;;
43154;SDS011;34212;51.018;13.586;2023-04-24T09:39:27;1.33;;;0.90;;
43154;SDS011;34212;51.018;13.586;2023-04-24T09:44:29;1.80;;;1.00;;
43154;SDS011;34212;51.018;13.586;2023-04-24T09:49:31;3.38;;;1.00;;
43154;SDS011;34212;51.018;13.586;2023-04-24T09:54:37;1.48;;;0.90;;
43154;SDS011;34212;51.018;13.586;2023-04-24T09:59:42;1.30;;;0.90;;
43154;SDS011;34212;51.018;13.586;2023-04-24T10:04:53;1.60;;;1.23;;
43154;SDS011;34212;51.018;13.586;2023-04-24T10:09:57;1.30;;;0.80;;
43154;SDS011;34212;51.018;13.586;2023-04-24T10:14:59;1.85;;;0.80;;
43154;SDS011;34212;51.018;13.586;2023-04-24T10:20:02;3.30;;;1.33;;
43154;SDS011;34212;51.018;13.586;2023-04-24T10:25:06;1.15;;;0.90;;
43154;SDS011;34212;51.018;13.586;2023-04-24T10:30:10;1.52;;;0.88;;
43154;SDS011;34212;51.018;13.586;2023-04-24T10:35:14;1.15;;;0.80;;
43154;SDS011;34212;51.018;13.586;2023-04-24T10:40:18;1.02;;;0.90;;
43154;SDS011;34212;51.018;13.586;2023-04-24T10:45:26;1.90;;;0.98;;
43154;SDS011;34212;51.018;13.586;2023-04-24T10:50:28;1.10;;;0.97;;
43154;SDS011;34212;51.018;13.586;2023-04-24T10:55:41;2.25;;;1.00;;
43154;SDS011;34212;51.018;13.586;2023-04-24T11:00:47;1.00;;;0.90;;
43154;SDS011;34212;51.018;13.586;2023-04-24T11:06:06;3.65;;;1.10;;
43154;SDS011;34212;51.018;13.586;2023-04-24T11:11:16;1.17;;;0.70;;
43154;SDS011;34212;51.018;13.586;2023-04-24T11:16:26;1.13;;;0.75;;
43154;SDS011;34212;51.018;13.586;2023-04-24T11:21:41;2.70;;;1.02;;
43154;SDS011;34212;51.018;13.586;2023-04-24T11:26:57;1.30;;;0.93;;
43154;SDS011;34212;51.018;13.586;2023-04-24T11:32:14;1.98;;;1.05;;
43154;SDS011;34212;51.018;13.586;2023-04-24T11:37:18;0.88;;;0.80;;
43154;SDS011;34212;51.018;13.586;2023-04-24T11:42:21;2.80;;;1.00;;
43154;SDS011;34212;51.018;13.586;2023-04-24T11:47:30;1.75;;;1.10;;
43154;SDS011;34212;51.018;13.586;2023-04-24T11:52:38;1.75;;;1.00;;
43154;SDS011;34212;51.018;13.586;2023-04-24T11:57:49;1.58;;;1.25;;
43154;SDS011;34212;51.018;13.586;2023-04-24T12:03:02;1.30;;;1.05;;
43154;SDS011;34212;51.018;13.586;2023-04-24T12:08:06;1.95;;;0.95;;
43154;SDS011;34212;51.018;13.586;2023-04-24T12:13:08;1.25;;;1.00;;
43154;SDS011;34212;51.018;13.586;2023-04-24T12:18:11;2.42;;;1.10;;
43154;SDS011;34212;51.018;13.586;2023-04-24T12:23:14;6.65;;;1.30;;
43154;SDS011;34212;51.018;13.586;2023-04-24T12:28:15;4.37;;;1.40;;
43154;SDS011;34212;51.018;13.586;2023-04-24T12:33:17;1.27;;;1.10;;
43154;SDS011;34212;51.018;13.586;2023-04-24T12:38:22;2.65;;;1.20;;
43154;SDS011;34212;51.018;13.586;2023-04-24T12:43:25;2.55;;;1.20;;
43154;SDS011;34212;51.018;13.586;2023-04-24T12:48:27;6.90;;;3.93;;
43154;SDS011;34212;51.018;13.586;2023-04-24T12:53:29;4.20;;;2.75;;
43154;SDS011;34212;51.018;13.586;2023-04-24T13:03:33;2.78;;;1.42;;
43154;SDS011;34212;51.018;13.586;2023-04-24T13:08:35;1.55;;;1.45;;
43154;SDS011;34212;51.018;13.586;2023-04-24T13:13:36;2.97;;;1.60;;
43154;SDS011;34212;51.018;13.586;2023-04-24T13:18:38;5.03;;;1.97;;
43154;SDS011;34212;51.018;13.586;2023-04-24T13:23:39;2.65;;;1.60;;
43154;SDS011;34212;51.018;13.586;2023-04-24T13:28:42;4.70;;;1.30;;
43154;SDS011;34212;51.018;13.586;2023-04-24T13:33:44;4.07;;;1.35;;
43154;SDS011;34212;51.018;13.586;2023-04-24T13:38:46;3.78;;;1.27;;
43154;SDS011;34212;51.018;13.586;2023-04-24T13:43:47;1.30;;;1.20;;
43154;SDS011;34212;51.018;13.586;2023-04-24T13:48:49;2.50;;;1.42;;
43154;SDS011;34212;51.018;13.586;2023-04-24T13:53:50;4.88;;;1.40;;
43154;SDS011;34212;51.018;13.586;2023-04-24T13:58:52;1.67;;;1.58;;
43154;SDS011;34212;51.018;13.586;2023-04-24T14:03:55;1.92;;;1.30;;
43154;SDS011;34212;51.018;13.586;2023-04-24T14:08:58;1.70;;;1.40;;
43154;SDS011;34212;51.018;13.586;2023-04-24T14:13:59;2.10;;;1.50;;
43154;SDS011;34212;51.018;13.586;2023-04-24T14:19:01;2.23;;;1.30;;
43154;SDS011;34212;51.018;13.586;2023-04-24T14:24:02;3.20;;;1.47;;
43154;SDS011;34212;51.018;13.586;2023-04-24T14:29:04;2.17;;;1.67;;
43154;SDS011;34212;51.018;13.586;2023-04-24T14:34:15;1.92;;;1.73;;
43154;SDS011;34212;51.018;13.586;2023-04-24T14:39:16;2.00;;;1.43;;
43154;SDS011;34212;51.018;13.586;2023-04-24T14:44:18;2.40;;;1.50;;
43154;SDS011;34212;51.018;13.586;2023-04-24T14:49:19;3.73;;;1.70;;
43154;SDS011;34212;51.018;13.586;2023-04-24T14:54:21;1.85;;;1.50;;
43154;SDS011;34212;51.018;13.586;2023-04-24T14:59:24;1.95;;;1.52;;
43154;SDS011;34212;51.018;13.586;2023-04-24T15:04:26;1.30;;;1.20;;
43154;SDS011;34212;51.018;13.586;2023-04-24T15:09:29;2.67;;;1.40;;
43154;SDS011;34212;51.018;13.586;2023-04-24T15:14:32;3.22;;;1.23;;
43154;SDS011;34212;51.018;13.586;2023-04-24T15:19:34;2.15;;;1.50;;
43154;SDS011;34212;51.018;13.586;2023-04-24T15:24:36;1.67;;;1.27;;
43154;SDS011;34212;51.018;13.586;2023-04-24T15:29:38;1.30;;;1.20;;
43154;SDS011;34212;51.018;13.586;2023-04-24T15:34:39;2.47;;;1.30;;
43154;SDS011;34212;51.018;13.586;2023-04-24T15:39:41;1.63;;;1.30;;
43154;SDS011;34212;51.018;13.586;2023-04-24T15:44:45;2.83;;;1.65;;
43154;SDS011;34212;51.018;13.586;2023-04-24T15:49:47;2.80;;;1.70;;
43154;SDS011;34212;51.018;13.586;2023-04-24T15:54:48;1.60;;;1.47;;
43154;SDS011;34212;51.018;13.586;2023-04-24T15:59:50;3.13;;;1.40;;
43154;SDS011;34212;51.018;13.586;2023-04-24T16:04:52;2.58;;;1.73;;
43154;SDS011;34212;51.018;13.586;2023-04-24T16:09:54;1.30;;;1.20;;
43154;SDS011;34212;51.018;13.586;2023-04-24T16:14:55;2.88;;;1.50;;
43154;SDS011;34212;51.018;13.586;2023-04-24T16:19:57;1.40;;;1.30;;
43154;SDS011;34212;51.018;13.586;2023-04-24T16:24:58;2.80;;;1.70;;
43154;SDS011;34212;51.018;13.586;2023-04-24T16:30:00;2.03;;;1.37;;
43154;SDS011;34212;51.018;13.586;2023-04-24T16:35:02;1.80;;;1.40;;
43154;SDS011;34212;51.018;13.586;2023-04-24T16:40:03;4.90;;;1.77;;
43154;SDS011;34212;51.018;13.586;2023-04-24T16:45:10;3.53;;;1.90;;
43154;SDS011;34212;51.018;13.586;2023-04-24T16:50:12;2.22;;;1.60;;
43154;SDS011;34212;51.018;13.586;2023-04-24T16:55:13;4.80;;;1.70;;
43154;SDS011;34212;51.018;13.586;2023-04-24T17:00:15;4.82;;;1.63;;
43154;SDS011;34212;51.018;13.586;2023-04-24T17:05:17;4.63;;;1.50;;
43154;SDS011;34212;51.018;13.586;2023-04-24T17:10:20;2.63;;;1.90;;
43154;SDS011;34212;51.018;13.586;2023-04-24T17:15:22;1.20;;;1.10;;
43154;SDS011;34212;51.018;13.586;2023-04-24T17:20:23;2.15;;;1.35;;
43154;SDS011;34212;51.018;13.586;2023-04-24T17:25:27;2.55;;;1.80;;
43154;SDS011;34212;51.018;13.586;2023-04-24T17:30:28;1.83;;;1.60;;
43154;SDS011;34212;51.018;13.586;2023-04-24T17:35:30;1.55;;;1.30;;
43154;SDS011;34212;51.018;13.586;2023-04-24T17:40:32;1.57;;;1.30;;
43154;SDS011;34212;51.018;13.586;2023-04-24T17:45:33;1.33;;;1.20;;
43154;SDS011;34212;51.018;13.586;2023-04-24T17:50:35;1.02;;;0.93;;
43154;SDS011;34212;51.018;13.586;2023-04-24T17:55:39;2.08;;;0.95;;
43154;SDS011;34212;51.018;13.586;2023-04-24T18:00:43;1.40;;;1.10;;
43154;SDS011;34212;51.018;13.586;2023-04-24T18:05:45;0.80;;;0.80;;
43154;SDS011;34212;51.018;13.586;2023-04-24T18:10:46;1.88;;;0.95;;
43154;SDS011;34212;51.018;13.586;2023-04-24T18:15:48;1.23;;;0.90;;
43154;SDS011;34212;51.018;13.586;2023-04-24T18:20:49;0.98;;;0.90;;
43154;SDS011;34212;51.018;13.586;2023-04-24T18:25:51;1.05;;;0.80;;
43154;SDS011;34212;51.018;13.586;2023-04-24T18:30:52;0.90;;;0.90;;
43154;SDS011;34212;51.018;13.586;2023-04-24T18:35:54;4.00;;;1.15;;
43154;SDS011;34212;51.018;13.586;2023-04-24T18:40:56;2.15;;;1.00;;
43154;SDS011;34212;51.018;13.586;2023-04-24T18:45:57;1.00;;;0.90;;
43154;SDS011;34212;51.018;13.586;2023-04-24T18:50:59;1.85;;;0.90;;
43154;SDS011;34212;51.018;13.586;2023-04-24T18:56:00;1.20;;;1.10;;
43154;SDS011;34212;51.018;13.586;2023-04-24T19:01:02;5.50;;;1.08;;
43154;SDS011;34212;51.018;13.586;2023-04-24T19:06:06;2.10;;;1.10;;
43154;SDS011;34212;51.018;13.586;2023-04-24T19:11:07;2.38;;;1.10;;
43154;SDS011;34212;51.018;13.586;2023-04-24T19:16:09;1.40;;;1.30;;
43154;SDS011;34212;51.018;13.586;2023-04-24T19:21:11;1.67;;;1.10;;
43154;SDS011;34212;51.018;13.586;2023-04-24T19:26:13;5.10;;;1.30;;
43154;SDS011;34212;51.018;13.586;2023-04-24T19:31:14;1.50;;;1.30;;
43154;SDS011;34212;51.018;13.586;2023-04-24T19:36:16;2.30;;;1.23;;
43154;SDS011;34212;51.018;13.586;2023-04-24T19:41:21;2.45;;;1.48;;
43154;SDS011;34212;51.018;13.586;2023-04-24T19:46:22;1.60;;;1.40;;
43154;SDS011;34212;51.018;13.586;2023-04-24T19:51:24;1.63;;;1.53;;
43154;SDS011;34212;51.018;13.586;2023-04-24T19:56:26;1.70;;;1.50;;
43154;SDS011;34212;51.018;13.586;2023-04-24T20:01:28;2.92;;;1.90;;
43154;SDS011;34212;51.018;13.586;2023-04-24T20:06:29;2.05;;;1.70;;
43154;SDS011;34212;51.018;13.586;2023-04-24T20:11:32;3.63;;;2.60;;
43154;SDS011;34212;51.018;13.586;2023-04-24T20:16:34;2.00;;;1.80;;
43154;SDS011;34212;51.018;13.586;2023-04-24T20:21:35;2.65;;;1.63;;
43154;SDS011;34212;51.018;13.586;2023-04-24T20:26:37;3.20;;;1.90;;
43154;SDS011;34212;51.018;13.586;2023-04-24T20:31:38;2.65;;;1.65;;
43154;SDS011;34212;51.018;13.586;2023-04-24T20:36:41;2.92;;;2.15;;
43154;SDS011;34212;51.018;13.586;2023-04-24T20:41:49;3.50;;;2.08;;
43154;SDS011;34212;51.018;13.586;2023-04-24T20:46:51;3.75;;;2.28;;
43154;SDS011;34212;51.018;13.586;2023-04-24T20:51:52;3.33;;;2.22;;
43154;SDS011;34212;51.018;13.586;2023-04-24T20:56:54;3.90;;;2.45;;
43154;SDS011;34212;51.018;13.586;2023-04-24T21:06:58;3.38;;;2.20;;
43154;SDS011;34212;51.018;13.586;2023-04-24T21:12:00;7.75;;;2.67;;
43154;SDS011;34212;51.018;13.586;2023-04-24T21:17:02;4.00;;;2.45;;
43154;SDS011;34212;51.018;13.586;2023-04-24T21:22:04;3.03;;;1.98;;
43154;SDS011;34212;51.018;13.586;2023-04-24T21:27:06;3.55;;;2.40;;
43154;SDS011;34212;51.018;13.586;2023-04-24T21:32:09;4.10;;;2.45;;
43154;SDS011;34212;51.018;13.586;2023-04-24T21:37:11;3.15;;;2.10;;
43154;SDS011;34212;51.018;13.586;2023-04-24T21:42:13;3.60;;;2.40;;
43154;SDS011;34212;51.018;13.586;2023-04-24T21:47:14;2.97;;;2.38;;
43154;SDS011;34212;51.018;13.586;2023-04-24T21:52:16;4.43;;;2.70;;
43154;SDS011;34212;51.018;13.586;2023-04-24T21:57:17;3.17;;;2.35;;
